sensor_id;sensor_type;location;lat;lon;timestamp;P1;durP1;ratioP1;P2;durP2;ratioP2
21152;SDS011;10734;44.792;20.482;2023-03-04T00:00:06;229.88;;;55.58;;
21152;SDS011;10734;44.792;20.482;2023-03-04T00:02:32;229.65;;;56.03;;
21152;SDS011;10734;44.792;20.482;2023-03-04T00:04:59;223.52;;;54.53;;
21152;SDS011;10734;44.792;20.482;2023-03-04T00:07:25;193.15;;;54.20;;
21152;SDS011;10734;44.792;20.482;2023-03-04T00:09:52;206.32;;;54.88;;
21152;SDS011;10734;44.792;20.482;2023-03-04T00:12:18;191.98;;;51.85;;
21152;SDS011;10734;44.792;20.482;2023-03-04T00:14:45;184.38;;;50.88;;
21152;SDS011;10734;44.792;20.482;2023-03-04T00:17:11;190.57;;;49.35;;
21152;SDS011;10734;44.792;20.482;2023-03-04T00:19:38;178.50;;;50.95;;
21152;SDS011;10734;44.792;20.482;2023-03-04T00:22:04;190.73;;;52.55;;
21152;SDS011;10734;44.792;20.482;2023-03-04T00:24:31;208.52;;;54.40;;
21152;SDS011;10734;44.792;20.482;2023-03-04T00:26:58;219.77;;;56.08;;
21152;SDS011;10734;44.792;20.482;2023-03-04T00:29:24;202.10;;;53.00;;
21152;SDS011;10734;44.792;20.482;2023-03-04T00:31:51;176.77;;;49.33;;
21152;SDS011;10734;44.792;20.482;2023-03-04T00:34:18;190.32;;;51.25;;
21152;SDS011;10734;44.792;20.482;2023-03-04T00:36:45;162.55;;;49.05;;
21152;SDS011;10734;44.792;20.482;2023-03-04T00:39:12;177.52;;;50.08;;
21152;SDS011;10734;44.792;20.482;2023-03-04T00:41:39;172.48;;;49.72;;
21152;SDS011;10734;44.792;20.482;2023-03-04T00:44:06;167.45;;;48.20;;
21152;SDS011;10734;44.792;20.482;2023-03-04T00:46:33;142.60;;;44.72;;
21152;SDS011;10734;44.792;20.482;2023-03-04T00:48:59;146.65;;;43.72;;
21152;SDS011;10734;44.792;20.482;2023-03-04T00:51:26;144.38;;;46.08;;
21152;SDS011;10734;44.792;20.482;2023-03-04T00:53:53;170.27;;;48.38;;
21152;SDS011;10734;44.792;20.482;2023-03-04T00:56:19;152.98;;;48.33;;
21152;SDS011;10734;44.792;20.482;2023-03-04T00:58:46;150.15;;;46.22;;
21152;SDS011;10734;44.792;20.482;2023-03-04T01:01:12;148.93;;;46.42;;
21152;SDS011;10734;44.792;20.482;2023-03-04T01:03:39;159.18;;;46.88;;
21152;SDS011;10734;44.792;20.482;2023-03-04T01:06:06;168.05;;;48.45;;
21152;SDS011;10734;44.792;20.482;2023-03-04T01:08:33;161.43;;;46.78;;
21152;SDS011;10734;44.792;20.482;2023-03-04T01:10:59;176.20;;;48.60;;
21152;SDS011;10734;44.792;20.482;2023-03-04T01:13:29;168.15;;;46.63;;
21152;SDS011;10734;44.792;20.482;2023-03-04T01:15:55;171.57;;;46.22;;
21152;SDS011;10734;44.792;20.482;2023-03-04T01:18:23;174.65;;;47.63;;
21152;SDS011;10734;44.792;20.482;2023-03-04T01:20:50;169.88;;;48.28;;
21152;SDS011;10734;44.792;20.482;2023-03-04T01:23:16;166.10;;;48.50;;
21152;SDS011;10734;44.792;20.482;2023-03-04T01:25:43;184.35;;;49.72;;
21152;SDS011;10734;44.792;20.482;2023-03-04T01:28:09;213.38;;;47.95;;
21152;SDS011;10734;44.792;20.482;2023-03-04T01:30:37;194.85;;;50.10;;
21152;SDS011;10734;44.792;20.482;2023-03-04T01:33:03;181.77;;;49.63;;
21152;SDS011;10734;44.792;20.482;2023-03-04T01:35:30;191.18;;;48.15;;
21152;SDS011;10734;44.792;20.482;2023-03-04T01:37:56;200.68;;;52.47;;
21152;SDS011;10734;44.792;20.482;2023-03-04T01:40:23;181.10;;;49.47;;
21152;SDS011;10734;44.792;20.482;2023-03-04T01:42:49;218.82;;;51.42;;
21152;SDS011;10734;44.792;20.482;2023-03-04T01:45:16;166.43;;;47.58;;
21152;SDS011;10734;44.792;20.482;2023-03-04T01:47:45;183.23;;;50.20;;
21152;SDS011;10734;44.792;20.482;2023-03-04T01:50:27;236.07;;;51.83;;
21152;SDS011;10734;44.792;20.482;2023-03-04T01:52:56;185.68;;;48.65;;
21152;SDS011;10734;44.792;20.482;2023-03-04T01:55:22;181.27;;;46.28;;
21152;SDS011;10734;44.792;20.482;2023-03-04T01:57:49;159.30;;;44.65;;
21152;SDS011;10734;44.792;20.482;2023-03-04T02:02:47;179.43;;;48.80;;
21152;SDS011;10734;44.792;20.482;2023-03-04T02:05:15;185.98;;;48.90;;
21152;SDS011;10734;44.792;20.482;2023-03-04T02:07:41;163.27;;;47.85;;
21152;SDS011;10734;44.792;20.482;2023-03-04T02:10:08;147.73;;;45.17;;
21152;SDS011;10734;44.792;20.482;2023-03-04T02:12:35;152.75;;;46.33;;
21152;SDS011;10734;44.792;20.482;2023-03-04T02:15:02;143.90;;;45.60;;
21152;SDS011;10734;44.792;20.482;2023-03-04T02:17:30;162.48;;;47.95;;
21152;SDS011;10734;44.792;20.482;2023-03-04T02:20:09;167.32;;;48.60;;
21152;SDS011;10734;44.792;20.482;2023-03-04T02:22:39;167.03;;;47.53;;
21152;SDS011;10734;44.792;20.482;2023-03-04T02:25:07;168.02;;;48.83;;
21152;SDS011;10734;44.792;20.482;2023-03-04T02:27:36;154.90;;;47.75;;
21152;SDS011;10734;44.792;20.482;2023-03-04T02:30:03;162.85;;;48.13;;
21152;SDS011;10734;44.792;20.482;2023-03-04T02:32:29;168.93;;;49.38;;
21152;SDS011;10734;44.792;20.482;2023-03-04T02:34:56;172.70;;;49.28;;
21152;SDS011;10734;44.792;20.482;2023-03-04T02:37:22;160.20;;;46.88;;
21152;SDS011;10734;44.792;20.482;2023-03-04T02:39:49;170.30;;;48.72;;
21152;SDS011;10734;44.792;20.482;2023-03-04T02:42:15;192.88;;;49.80;;
21152;SDS011;10734;44.792;20.482;2023-03-04T02:44:43;196.93;;;52.25;;
21152;SDS011;10734;44.792;20.482;2023-03-04T02:47:13;251.23;;;58.20;;
21152;SDS011;10734;44.792;20.482;2023-03-04T02:49:40;196.57;;;52.67;;
21152;SDS011;10734;44.792;20.482;2023-03-04T02:52:08;194.95;;;53.13;;
21152;SDS011;10734;44.792;20.482;2023-03-04T02:54:36;226.88;;;56.35;;
21152;SDS011;10734;44.792;20.482;2023-03-04T02:57:04;246.50;;;62.47;;
21152;SDS011;10734;44.792;20.482;2023-03-04T02:59:31;252.65;;;60.70;;
21152;SDS011;10734;44.792;20.482;2023-03-04T03:01:57;258.40;;;60.03;;
21152;SDS011;10734;44.792;20.482;2023-03-04T03:04:24;258.80;;;60.80;;
21152;SDS011;10734;44.792;20.482;2023-03-04T03:06:51;253.20;;;63.20;;
21152;SDS011;10734;44.792;20.482;2023-03-04T03:09:17;262.33;;;64.40;;
21152;SDS011;10734;44.792;20.482;2023-03-04T03:11:44;277.90;;;63.03;;
21152;SDS011;10734;44.792;20.482;2023-03-04T03:14:11;269.08;;;65.57;;
21152;SDS011;10734;44.792;20.482;2023-03-04T03:16:37;263.05;;;66.40;;
21152;SDS011;10734;44.792;20.482;2023-03-04T03:19:04;259.85;;;63.03;;
21152;SDS011;10734;44.792;20.482;2023-03-04T03:21:30;244.68;;;60.42;;
21152;SDS011;10734;44.792;20.482;2023-03-04T03:23:57;253.52;;;60.38;;
21152;SDS011;10734;44.792;20.482;2023-03-04T03:26:24;232.68;;;55.92;;
21152;SDS011;10734;44.792;20.482;2023-03-04T03:28:50;247.52;;;58.45;;
21152;SDS011;10734;44.792;20.482;2023-03-04T03:31:16;247.68;;;62.17;;
21152;SDS011;10734;44.792;20.482;2023-03-04T03:33:43;254.88;;;58.75;;
21152;SDS011;10734;44.792;20.482;2023-03-04T03:36:10;243.70;;;59.22;;
21152;SDS011;10734;44.792;20.482;2023-03-04T03:38:37;232.35;;;58.67;;
21152;SDS011;10734;44.792;20.482;2023-03-04T03:41:03;251.65;;;60.53;;
21152;SDS011;10734;44.792;20.482;2023-03-04T03:43:30;265.45;;;60.47;;
21152;SDS011;10734;44.792;20.482;2023-03-04T03:45:56;265.83;;;60.97;;
21152;SDS011;10734;44.792;20.482;2023-03-04T03:48:23;281.52;;;62.67;;
21152;SDS011;10734;44.792;20.482;2023-03-04T03:50:49;241.75;;;57.92;;
21152;SDS011;10734;44.792;20.482;2023-03-04T03:53:16;314.83;;;73.15;;
21152;SDS011;10734;44.792;20.482;2023-03-04T03:55:42;250.60;;;65.80;;
21152;SDS011;10734;44.792;20.482;2023-03-04T03:58:09;237.40;;;65.57;;
21152;SDS011;10734;44.792;20.482;2023-03-04T04:00:35;199.35;;;57.60;;
21152;SDS011;10734;44.792;20.482;2023-03-04T04:03:02;213.10;;;60.63;;
21152;SDS011;10734;44.792;20.482;2023-03-04T04:05:28;216.52;;;57.42;;
21152;SDS011;10734;44.792;20.482;2023-03-04T04:07:55;219.77;;;57.53;;
21152;SDS011;10734;44.792;20.482;2023-03-04T04:10:21;222.00;;;58.70;;
21152;SDS011;10734;44.792;20.482;2023-03-04T04:12:48;261.20;;;60.47;;
21152;SDS011;10734;44.792;20.482;2023-03-04T04:15:14;210.88;;;55.33;;
21152;SDS011;10734;44.792;20.482;2023-03-04T04:17:41;221.30;;;60.33;;
21152;SDS011;10734;44.792;20.482;2023-03-04T04:20:08;192.77;;;51.92;;
21152;SDS011;10734;44.792;20.482;2023-03-04T04:22:34;197.55;;;53.53;;
21152;SDS011;10734;44.792;20.482;2023-03-04T04:25:01;224.95;;;55.40;;
21152;SDS011;10734;44.792;20.482;2023-03-04T04:27:27;209.73;;;56.25;;
21152;SDS011;10734;44.792;20.482;2023-03-04T04:29:54;208.73;;;55.53;;
21152;SDS011;10734;44.792;20.482;2023-03-04T04:32:20;228.82;;;56.03;;
21152;SDS011;10734;44.792;20.482;2023-03-04T04:34:47;262.58;;;57.72;;
21152;SDS011;10734;44.792;20.482;2023-03-04T04:37:13;239.70;;;56.67;;
21152;SDS011;10734;44.792;20.482;2023-03-04T04:39:40;251.70;;;57.92;;
21152;SDS011;10734;44.792;20.482;2023-03-04T04:42:07;225.68;;;58.25;;
21152;SDS011;10734;44.792;20.482;2023-03-04T04:44:34;235.82;;;57.30;;
21152;SDS011;10734;44.792;20.482;2023-03-04T04:47:04;230.88;;;55.33;;
21152;SDS011;10734;44.792;20.482;2023-03-04T04:49:32;207.38;;;51.78;;
21152;SDS011;10734;44.792;20.482;2023-03-04T04:51:58;216.07;;;52.58;;
21152;SDS011;10734;44.792;20.482;2023-03-04T04:54:25;221.55;;;56.42;;
21152;SDS011;10734;44.792;20.482;2023-03-04T04:56:51;208.07;;;52.85;;
21152;SDS011;10734;44.792;20.482;2023-03-04T04:59:18;210.60;;;51.40;;
21152;SDS011;10734;44.792;20.482;2023-03-04T05:01:44;183.57;;;50.58;;
21152;SDS011;10734;44.792;20.482;2023-03-04T05:04:11;186.93;;;48.13;;
21152;SDS011;10734;44.792;20.482;2023-03-04T05:06:37;204.25;;;52.60;;
21152;SDS011;10734;44.792;20.482;2023-03-04T05:09:04;184.30;;;49.75;;
21152;SDS011;10734;44.792;20.482;2023-03-04T05:11:31;197.25;;;51.88;;
21152;SDS011;10734;44.792;20.482;2023-03-04T05:13:57;242.07;;;54.83;;
21152;SDS011;10734;44.792;20.482;2023-03-04T05:16:24;317.58;;;59.72;;
21152;SDS011;10734;44.792;20.482;2023-03-04T05:18:50;219.57;;;56.30;;
21152;SDS011;10734;44.792;20.482;2023-03-04T05:21:17;252.93;;;59.97;;
21152;SDS011;10734;44.792;20.482;2023-03-04T05:23:43;243.27;;;57.70;;
21152;SDS011;10734;44.792;20.482;2023-03-04T05:26:10;231.48;;;57.03;;
21152;SDS011;10734;44.792;20.482;2023-03-04T05:28:38;243.25;;;56.20;;
21152;SDS011;10734;44.792;20.482;2023-03-04T05:31:04;229.93;;;56.60;;
21152;SDS011;10734;44.792;20.482;2023-03-04T05:33:31;226.15;;;54.85;;
21152;SDS011;10734;44.792;20.482;2023-03-04T05:35:58;211.93;;;53.20;;
21152;SDS011;10734;44.792;20.482;2023-03-04T05:38:24;203.05;;;51.45;;
21152;SDS011;10734;44.792;20.482;2023-03-04T05:40:54;179.55;;;49.38;;
21152;SDS011;10734;44.792;20.482;2023-03-04T05:43:21;173.73;;;49.60;;
21152;SDS011;10734;44.792;20.482;2023-03-04T05:45:48;158.05;;;47.25;;
21152;SDS011;10734;44.792;20.482;2023-03-04T05:48:15;157.75;;;46.97;;
21152;SDS011;10734;44.792;20.482;2023-03-04T05:50:41;136.63;;;43.00;;
21152;SDS011;10734;44.792;20.482;2023-03-04T05:53:08;152.55;;;45.85;;
21152;SDS011;10734;44.792;20.482;2023-03-04T05:55:34;149.15;;;46.60;;
21152;SDS011;10734;44.792;20.482;2023-03-04T05:58:01;152.85;;;46.80;;
21152;SDS011;10734;44.792;20.482;2023-03-04T06:00:27;133.45;;;44.22;;
21152;SDS011;10734;44.792;20.482;2023-03-04T06:02:54;145.23;;;44.17;;
21152;SDS011;10734;44.792;20.482;2023-03-04T06:05:20;141.75;;;45.70;;
21152;SDS011;10734;44.792;20.482;2023-03-04T06:07:47;146.23;;;46.72;;
21152;SDS011;10734;44.792;20.482;2023-03-04T06:10:14;131.80;;;42.95;;
21152;SDS011;10734;44.792;20.482;2023-03-04T06:12:41;123.15;;;42.85;;
21152;SDS011;10734;44.792;20.482;2023-03-04T06:15:08;127.85;;;43.72;;
21152;SDS011;10734;44.792;20.482;2023-03-04T06:17:36;126.30;;;41.88;;
21152;SDS011;10734;44.792;20.482;2023-03-04T06:20:05;136.20;;;43.75;;
21152;SDS011;10734;44.792;20.482;2023-03-04T06:22:32;142.68;;;45.58;;
21152;SDS011;10734;44.792;20.482;2023-03-04T06:24:59;142.80;;;47.17;;
21152;SDS011;10734;44.792;20.482;2023-03-04T06:30:57;138.20;;;46.15;;
21152;SDS011;10734;44.792;20.482;2023-03-04T06:36:12;133.70;;;42.10;;
21152;SDS011;10734;44.792;20.482;2023-03-04T06:38:39;145.50;;;44.05;;
21152;SDS011;10734;44.792;20.482;2023-03-04T06:41:09;144.77;;;44.97;;
21152;SDS011;10734;44.792;20.482;2023-03-04T06:43:36;157.50;;;46.90;;
21152;SDS011;10734;44.792;20.482;2023-03-04T06:46:02;136.55;;;45.63;;
21152;SDS011;10734;44.792;20.482;2023-03-04T06:48:29;145.40;;;46.42;;
21152;SDS011;10734;44.792;20.482;2023-03-04T06:50:55;144.48;;;46.80;;
21152;SDS011;10734;44.792;20.482;2023-03-04T06:53:22;165.63;;;48.28;;
21152;SDS011;10734;44.792;20.482;2023-03-04T06:55:48;156.43;;;45.97;;
21152;SDS011;10734;44.792;20.482;2023-03-04T06:58:15;150.77;;;45.28;;
21152;SDS011;10734;44.792;20.482;2023-03-04T07:00:43;149.65;;;46.55;;
21152;SDS011;10734;44.792;20.482;2023-03-04T07:03:10;142.50;;;46.65;;
21152;SDS011;10734;44.792;20.482;2023-03-04T07:05:37;142.82;;;45.08;;
21152;SDS011;10734;44.792;20.482;2023-03-04T07:08:04;131.30;;;48.63;;
21152;SDS011;10734;44.792;20.482;2023-03-04T07:10:32;135.65;;;44.63;;
21152;SDS011;10734;44.792;20.482;2023-03-04T07:12:58;129.63;;;46.05;;
21152;SDS011;10734;44.792;20.482;2023-03-04T07:15:26;122.78;;;43.92;;
21152;SDS011;10734;44.792;20.482;2023-03-04T07:17:52;124.63;;;44.00;;
21152;SDS011;10734;44.792;20.482;2023-03-04T07:20:19;125.03;;;42.90;;
21152;SDS011;10734;44.792;20.482;2023-03-04T07:22:45;119.35;;;42.55;;
21152;SDS011;10734;44.792;20.482;2023-03-04T07:25:12;114.85;;;42.90;;
21152;SDS011;10734;44.792;20.482;2023-03-04T07:27:39;114.78;;;42.90;;
21152;SDS011;10734;44.792;20.482;2023-03-04T07:30:06;120.65;;;43.97;;
21152;SDS011;10734;44.792;20.482;2023-03-04T07:32:34;127.88;;;44.08;;
21152;SDS011;10734;44.792;20.482;2023-03-04T07:35:01;117.65;;;43.65;;
21152;SDS011;10734;44.792;20.482;2023-03-04T07:37:28;113.03;;;44.80;;
21152;SDS011;10734;44.792;20.482;2023-03-04T07:39:55;137.57;;;45.72;;
21152;SDS011;10734;44.792;20.482;2023-03-04T07:42:21;130.05;;;46.70;;
21152;SDS011;10734;44.792;20.482;2023-03-04T07:44:48;127.00;;;44.83;;
21152;SDS011;10734;44.792;20.482;2023-03-04T07:47:14;125.70;;;47.80;;
21152;SDS011;10734;44.792;20.482;2023-03-04T07:49:42;148.35;;;50.72;;
21152;SDS011;10734;44.792;20.482;2023-03-04T07:52:08;125.95;;;46.42;;
21152;SDS011;10734;44.792;20.482;2023-03-04T07:54:35;124.05;;;48.47;;
21152;SDS011;10734;44.792;20.482;2023-03-04T07:57:01;126.82;;;44.65;;
21152;SDS011;10734;44.792;20.482;2023-03-04T07:59:28;127.03;;;46.22;;
21152;SDS011;10734;44.792;20.482;2023-03-04T08:01:55;126.32;;;45.45;;
21152;SDS011;10734;44.792;20.482;2023-03-04T08:04:22;130.63;;;46.88;;
21152;SDS011;10734;44.792;20.482;2023-03-04T08:06:48;128.35;;;47.47;;
21152;SDS011;10734;44.792;20.482;2023-03-04T08:09:15;111.70;;;43.17;;
21152;SDS011;10734;44.792;20.482;2023-03-04T08:11:42;124.32;;;45.22;;
21152;SDS011;10734;44.792;20.482;2023-03-04T08:14:12;106.82;;;44.92;;
21152;SDS011;10734;44.792;20.482;2023-03-04T08:16:39;105.13;;;42.22;;
21152;SDS011;10734;44.792;20.482;2023-03-04T08:19:06;108.93;;;44.33;;
21152;SDS011;10734;44.792;20.482;2023-03-04T08:21:33;113.38;;;43.47;;
21152;SDS011;10734;44.792;20.482;2023-03-04T08:24:00;111.35;;;45.25;;
21152;SDS011;10734;44.792;20.482;2023-03-04T08:26:30;103.93;;;44.83;;
21152;SDS011;10734;44.792;20.482;2023-03-04T08:29:00;96.40;;;42.13;;
21152;SDS011;10734;44.792;20.482;2023-03-04T08:31:27;112.63;;;43.38;;
21152;SDS011;10734;44.792;20.482;2023-03-04T08:33:53;103.45;;;44.15;;
21152;SDS011;10734;44.792;20.482;2023-03-04T08:36:20;97.50;;;40.17;;
21152;SDS011;10734;44.792;20.482;2023-03-04T08:38:47;101.97;;;41.45;;
21152;SDS011;10734;44.792;20.482;2023-03-04T08:41:14;95.30;;;41.40;;
21152;SDS011;10734;44.792;20.482;2023-03-04T08:43:42;98.47;;;42.92;;
21152;SDS011;10734;44.792;20.482;2023-03-04T08:46:10;98.88;;;44.88;;
21152;SDS011;10734;44.792;20.482;2023-03-04T08:48:38;93.30;;;39.50;;
21152;SDS011;10734;44.792;20.482;2023-03-04T08:51:09;79.07;;;36.88;;
21152;SDS011;10734;44.792;20.482;2023-03-04T08:53:36;82.15;;;38.13;;
21152;SDS011;10734;44.792;20.482;2023-03-04T08:56:03;90.38;;;41.75;;
21152;SDS011;10734;44.792;20.482;2023-03-04T08:58:31;86.82;;;41.25;;
21152;SDS011;10734;44.792;20.482;2023-03-04T09:00:58;89.25;;;43.13;;
21152;SDS011;10734;44.792;20.482;2023-03-04T09:03:26;96.50;;;43.08;;
21152;SDS011;10734;44.792;20.482;2023-03-04T09:05:53;88.25;;;43.28;;
21152;SDS011;10734;44.792;20.482;2023-03-04T09:08:20;88.22;;;42.75;;
21152;SDS011;10734;44.792;20.482;2023-03-04T09:10:50;86.28;;;40.97;;
21152;SDS011;10734;44.792;20.482;2023-03-04T09:13:18;86.07;;;40.70;;
21152;SDS011;10734;44.792;20.482;2023-03-04T09:15:45;87.88;;;39.88;;
21152;SDS011;10734;44.792;20.482;2023-03-04T09:18:13;85.00;;;41.65;;
21152;SDS011;10734;44.792;20.482;2023-03-04T09:20:41;86.00;;;40.88;;
21152;SDS011;10734;44.792;20.482;2023-03-04T09:23:07;76.15;;;39.63;;
21152;SDS011;10734;44.792;20.482;2023-03-04T09:25:36;77.82;;;39.42;;
21152;SDS011;10734;44.792;20.482;2023-03-04T09:28:02;77.85;;;39.80;;
21152;SDS011;10734;44.792;20.482;2023-03-04T09:30:30;72.07;;;37.63;;
21152;SDS011;10734;44.792;20.482;2023-03-04T09:32:57;73.90;;;37.72;;
21152;SDS011;10734;44.792;20.482;2023-03-04T09:35:23;78.68;;;39.20;;
21152;SDS011;10734;44.792;20.482;2023-03-04T09:37:51;72.78;;;39.13;;
21152;SDS011;10734;44.792;20.482;2023-03-04T09:40:18;72.85;;;39.58;;
21152;SDS011;10734;44.792;20.482;2023-03-04T09:42:50;76.20;;;36.55;;
21152;SDS011;10734;44.792;20.482;2023-03-04T09:45:19;71.90;;;36.75;;
21152;SDS011;10734;44.792;20.482;2023-03-04T09:47:48;62.00;;;33.22;;
21152;SDS011;10734;44.792;20.482;2023-03-04T09:50:16;56.50;;;32.05;;
21152;SDS011;10734;44.792;20.482;2023-03-04T09:55:23;53.55;;;31.83;;
21152;SDS011;10734;44.792;20.482;2023-03-04T09:57:52;61.95;;;31.77;;
21152;SDS011;10734;44.792;20.482;2023-03-04T10:05:55;62.42;;;33.72;;
21152;SDS011;10734;44.792;20.482;2023-03-04T10:08:32;63.55;;;32.63;;
21152;SDS011;10734;44.792;20.482;2023-03-04T10:11:00;55.65;;;31.77;;
21152;SDS011;10734;44.792;20.482;2023-03-04T10:13:35;55.67;;;29.17;;
21152;SDS011;10734;44.792;20.482;2023-03-04T10:16:04;62.15;;;29.13;;
21152;SDS011;10734;44.792;20.482;2023-03-04T10:18:35;54.80;;;29.52;;
21152;SDS011;10734;44.792;20.482;2023-03-04T10:21:05;48.75;;;26.52;;
21152;SDS011;10734;44.792;20.482;2023-03-04T10:23:34;48.80;;;29.23;;
21152;SDS011;10734;44.792;20.482;2023-03-04T10:26:09;53.60;;;28.73;;
21152;SDS011;10734;44.792;20.482;2023-03-04T10:28:38;58.13;;;30.35;;
21152;SDS011;10734;44.792;20.482;2023-03-04T10:33:35;66.07;;;33.83;;
21152;SDS011;10734;44.792;20.482;2023-03-04T10:36:03;46.13;;;26.27;;
21152;SDS011;10734;44.792;20.482;2023-03-04T10:38:34;48.13;;;27.38;;
21152;SDS011;10734;44.792;20.482;2023-03-04T10:41:01;54.20;;;31.92;;
21152;SDS011;10734;44.792;20.482;2023-03-04T10:43:37;65.53;;;34.58;;
21152;SDS011;10734;44.792;20.482;2023-03-04T10:46:04;65.47;;;35.33;;
21152;SDS011;10734;44.792;20.482;2023-03-04T10:48:31;73.82;;;42.03;;
21152;SDS011;10734;44.792;20.482;2023-03-04T10:51:11;62.40;;;37.03;;
21152;SDS011;10734;44.792;20.482;2023-03-04T10:53:40;61.03;;;34.88;;
21152;SDS011;10734;44.792;20.482;2023-03-04T10:58:53;59.80;;;33.90;;
21152;SDS011;10734;44.792;20.482;2023-03-04T11:01:39;55.20;;;31.10;;
21152;SDS011;10734;44.792;20.482;2023-03-04T11:04:15;65.40;;;38.22;;
21152;SDS011;10734;44.792;20.482;2023-03-04T11:06:43;53.50;;;30.83;;
21152;SDS011;10734;44.792;20.482;2023-03-04T11:09:45;83.50;;;36.60;;
21152;SDS011;10734;44.792;20.482;2023-03-04T11:12:09;72.30;;;33.15;;
21152;SDS011;10734;44.792;20.482;2023-03-04T11:14:46;47.03;;;24.70;;
21152;SDS011;10734;44.792;20.482;2023-03-04T11:19:49;116.40;;;54.75;;
21152;SDS011;10734;44.792;20.482;2023-03-04T11:22:17;65.60;;;35.95;;
21152;SDS011;10734;44.792;20.482;2023-03-04T11:24:46;52.10;;;29.27;;
21152;SDS011;10734;44.792;20.482;2023-03-04T11:27:19;53.15;;;30.20;;
21152;SDS011;10734;44.792;20.482;2023-03-04T11:29:53;57.28;;;31.58;;
21152;SDS011;10734;44.792;20.482;2023-03-04T11:32:23;52.97;;;30.10;;
21152;SDS011;10734;44.792;20.482;2023-03-04T11:34:53;52.40;;;29.00;;
21152;SDS011;10734;44.792;20.482;2023-03-04T11:37:34;52.90;;;28.17;;
21152;SDS011;10734;44.792;20.482;2023-03-04T11:45:02;49.83;;;30.63;;
21152;SDS011;10734;44.792;20.482;2023-03-04T11:47:45;52.97;;;30.05;;
21152;SDS011;10734;44.792;20.482;2023-03-04T11:50:25;51.65;;;28.83;;
21152;SDS011;10734;44.792;20.482;2023-03-04T11:55:40;50.40;;;26.48;;
21152;SDS011;10734;44.792;20.482;2023-03-04T12:11:01;53.17;;;24.92;;
21152;SDS011;10734;44.792;20.482;2023-03-04T12:28:49;39.13;;;23.88;;
21152;SDS011;10734;44.792;20.482;2023-03-04T12:31:24;47.20;;;26.02;;
21152;SDS011;10734;44.792;20.482;2023-03-04T12:33:59;57.95;;;22.60;;
21152;SDS011;10734;44.792;20.482;2023-03-04T12:44:21;40.50;;;22.33;;
21152;SDS011;10734;44.792;20.482;2023-03-04T12:54:32;44.10;;;22.63;;
21152;SDS011;10734;44.792;20.482;2023-03-04T12:57:03;40.75;;;23.20;;
21152;SDS011;10734;44.792;20.482;2023-03-04T12:59:36;35.78;;;21.88;;
21152;SDS011;10734;44.792;20.482;2023-03-04T13:09:50;36.53;;;23.45;;
21152;SDS011;10734;44.792;20.482;2023-03-04T13:12:18;39.33;;;22.52;;
21152;SDS011;10734;44.792;20.482;2023-03-04T13:22:59;48.65;;;23.23;;
21152;SDS011;10734;44.792;20.482;2023-03-04T13:38:22;42.42;;;21.85;;
21152;SDS011;10734;44.792;20.482;2023-03-04T13:51:34;44.55;;;25.23;;
21152;SDS011;10734;44.792;20.482;2023-03-04T13:54:11;47.70;;;24.10;;
21152;SDS011;10734;44.792;20.482;2023-03-04T13:56:43;51.17;;;26.10;;
21152;SDS011;10734;44.792;20.482;2023-03-04T13:59:16;55.03;;;25.00;;
21152;SDS011;10734;44.792;20.482;2023-03-04T14:04:17;51.55;;;27.27;;
21152;SDS011;10734;44.792;20.482;2023-03-04T14:06:45;48.78;;;23.55;;
21152;SDS011;10734;44.792;20.482;2023-03-04T14:09:13;44.25;;;23.42;;
21152;SDS011;10734;44.792;20.482;2023-03-04T14:11:40;52.65;;;25.73;;
21152;SDS011;10734;44.792;20.482;2023-03-04T14:14:12;42.33;;;23.75;;
21152;SDS011;10734;44.792;20.482;2023-03-04T14:16:44;44.30;;;22.13;;
21152;SDS011;10734;44.792;20.482;2023-03-04T14:19:14;70.22;;;24.10;;
21152;SDS011;10734;44.792;20.482;2023-03-04T14:21:44;45.50;;;22.00;;
21152;SDS011;10734;44.792;20.482;2023-03-04T14:24:13;51.90;;;23.77;;
21152;SDS011;10734;44.792;20.482;2023-03-04T14:26:41;48.05;;;23.38;;
21152;SDS011;10734;44.792;20.482;2023-03-04T14:29:24;41.72;;;22.98;;
21152;SDS011;10734;44.792;20.482;2023-03-04T14:31:51;53.38;;;24.45;;
21152;SDS011;10734;44.792;20.482;2023-03-04T14:34:37;45.15;;;23.50;;
21152;SDS011;10734;44.792;20.482;2023-03-04T14:37:17;52.53;;;23.25;;
21152;SDS011;10734;44.792;20.482;2023-03-04T14:39:46;48.28;;;24.48;;
21152;SDS011;10734;44.792;20.482;2023-03-04T14:42:15;51.30;;;22.35;;
21152;SDS011;10734;44.792;20.482;2023-03-04T14:44:46;48.95;;;22.77;;
21152;SDS011;10734;44.792;20.482;2023-03-04T14:50:03;42.67;;;20.42;;
21152;SDS011;10734;44.792;20.482;2023-03-04T14:55:00;43.67;;;21.42;;
21152;SDS011;10734;44.792;20.482;2023-03-04T14:57:28;52.40;;;22.38;;
21152;SDS011;10734;44.792;20.482;2023-03-04T15:00:06;40.78;;;21.58;;
21152;SDS011;10734;44.792;20.482;2023-03-04T15:05:09;47.33;;;23.35;;
21152;SDS011;10734;44.792;20.482;2023-03-04T15:07:42;42.03;;;21.08;;
21152;SDS011;10734;44.792;20.482;2023-03-04T15:10:10;45.15;;;23.33;;
21152;SDS011;10734;44.792;20.482;2023-03-04T15:18:02;47.20;;;22.90;;
21152;SDS011;10734;44.792;20.482;2023-03-04T15:20:31;54.63;;;23.52;;
21152;SDS011;10734;44.792;20.482;2023-03-04T15:23:01;49.13;;;24.37;;
21152;SDS011;10734;44.792;20.482;2023-03-04T15:25:28;50.53;;;25.13;;
21152;SDS011;10734;44.792;20.482;2023-03-04T15:27:55;47.15;;;24.15;;
21152;SDS011;10734;44.792;20.482;2023-03-04T15:30:29;70.75;;;35.17;;
21152;SDS011;10734;44.792;20.482;2023-03-04T15:32:57;52.38;;;25.33;;
21152;SDS011;10734;44.792;20.482;2023-03-04T15:35:26;59.42;;;26.52;;
21152;SDS011;10734;44.792;20.482;2023-03-04T15:37:53;42.47;;;24.15;;
21152;SDS011;10734;44.792;20.482;2023-03-04T15:40:26;60.55;;;27.58;;
21152;SDS011;10734;44.792;20.482;2023-03-04T15:42:53;71.40;;;34.58;;
21152;SDS011;10734;44.792;20.482;2023-03-04T15:45:33;52.63;;;27.30;;
21152;SDS011;10734;44.792;20.482;2023-03-04T15:48:03;46.47;;;24.80;;
21152;SDS011;10734;44.792;20.482;2023-03-04T15:50:34;46.60;;;23.27;;
21152;SDS011;10734;44.792;20.482;2023-03-04T15:53:02;47.17;;;26.42;;
21152;SDS011;10734;44.792;20.482;2023-03-04T15:55:29;43.13;;;23.70;;
21152;SDS011;10734;44.792;20.482;2023-03-04T15:57:57;50.15;;;27.60;;
21152;SDS011;10734;44.792;20.482;2023-03-04T16:00:26;45.35;;;24.00;;
21152;SDS011;10734;44.792;20.482;2023-03-04T16:02:53;47.17;;;24.60;;
21152;SDS011;10734;44.792;20.482;2023-03-04T16:05:20;43.28;;;24.48;;
21152;SDS011;10734;44.792;20.482;2023-03-04T16:07:48;60.92;;;28.88;;
21152;SDS011;10734;44.792;20.482;2023-03-04T16:12:45;50.28;;;27.08;;
21152;SDS011;10734;44.792;20.482;2023-03-04T16:15:21;50.10;;;26.83;;
21152;SDS011;10734;44.792;20.482;2023-03-04T16:17:48;49.38;;;27.15;;
21152;SDS011;10734;44.792;20.482;2023-03-04T16:20:16;46.40;;;25.83;;